createdAt,value
2018-08-18T00:00:34.919Z,101173.16
2018-08-18T00:03:04.665Z,101170.97
2018-08-18T00:05:34.353Z,101177.59
2018-08-18T00:08:04.290Z,101178.92
2018-08-18T00:10:33.957Z,101176.30
2018-08-18T00:13:03.644Z,101183.84
2018-08-18T00:15:33.332Z,101178.14
2018-08-18T00:18:03.154Z,101184.84
2018-08-18T00:20:32.953Z,101186.21
2018-08-18T00:23:02.650Z,101188.03
2018-08-18T00:25:32.373Z,101198.64
2018-08-18T00:28:21.555Z,101193.36
2018-08-18T00:30:51.177Z,101204.39
2018-08-18T00:33:20.942Z,101205.27
2018-08-18T00:35:50.640Z,101209.61
2018-08-18T00:38:24.308Z,101216.67
2018-08-18T00:40:55.162Z,101228.59
2018-08-18T00:43:24.844Z,101221.12
2018-08-18T00:45:54.568Z,101227.34
2018-08-18T00:48:24.268Z,101226.06
2018-08-18T00:50:54.000Z,101223.46
2018-08-18T00:53:23.652Z,101224.36
2018-08-18T00:55:53.461Z,101226.62
2018-08-18T00:58:27.184Z,101226.66
2018-08-18T01:01:02.759Z,101228.44
2018-08-18T01:03:40.331Z,101234.64
2018-08-18T01:06:25.478Z,101227.14
2018-08-18T01:08:56.955Z,101231.09
2018-08-18T01:11:26.969Z,101231.98
2018-08-18T01:13:57.427Z,101232.87
2018-08-18T01:16:27.064Z,101236.81
2018-08-18T01:18:56.659Z,101240.77
2018-08-18T01:21:26.377Z,101240.32
2018-08-18T01:23:55.924Z,101252.16
2018-08-18T01:26:25.465Z,101256.07
2018-08-18T01:29:12.175Z,101262.97
2018-08-18T01:31:41.734Z,101267.23
2018-08-18T01:34:11.408Z,101270.20
2018-08-18T01:36:41.050Z,101268.85
2018-08-18T01:39:12.830Z,101271.08
2018-08-18T01:41:42.414Z,101274.17
2018-08-18T01:44:13.455Z,101268.90
2018-08-18T01:46:43.636Z,101269.33
2018-08-18T01:49:36.134Z,101264.47
2018-08-18T01:52:13.172Z,101255.17
2018-08-18T01:54:43.616Z,101248.52
2018-08-18T01:57:13.696Z,101247.69
2018-08-18T01:59:44.405Z,101255.70
2018-08-18T02:02:16.872Z,101260.16
2018-08-18T02:04:47.254Z,101262.41
2018-08-18T02:07:25.886Z,101265.95
2018-08-18T02:09:55.820Z,101267.33
2018-08-18T02:12:25.989Z,101262.09
2018-08-18T02:14:55.972Z,101270.55
2018-08-18T02:17:35.854Z,101270.65
2018-08-18T02:20:08.110Z,101275.55
2018-08-18T02:22:37.644Z,101283.55
2018-08-18T02:25:07.684Z,101279.12
2018-08-18T02:27:38.182Z,101277.79
2018-08-18T02:30:21.209Z,101284.39
2018-08-18T02:32:51.065Z,101280.40
2018-08-18T02:35:21.660Z,101275.55
2018-08-18T02:37:51.212Z,101272.57
2018-08-18T02:40:20.909Z,101280.18
2018-08-18T02:42:50.481Z,101279.38
2018-08-18T02:45:20.012Z,101281.33
2018-08-18T02:48:01.121Z,101275.34
2018-08-18T02:50:30.700Z,101279.05
2018-08-18T02:53:00.325Z,101282.76
2018-08-18T02:55:29.856Z,101289.50
2018-08-18T02:57:59.402Z,101286.53
2018-08-18T03:00:34.227Z,101289.23
2018-08-18T03:03:03.771Z,101290.22
2018-08-18T03:05:33.317Z,101292.48
2018-08-18T03:08:03.056Z,101278.48
2018-08-18T03:10:32.665Z,101286.00
2018-08-18T03:13:02.205Z,101294.80
2018-08-18T03:16:08.123Z,101302.19
2018-08-18T03:18:48.714Z,101308.28
2018-08-18T03:21:19.052Z,101309.52
2018-08-18T03:24:05.623Z,101311.72
2018-08-18T03:26:42.585Z,101320.07
2018-08-18T03:29:12.919Z,101323.59
2018-08-18T03:31:42.865Z,101316.95
2018-08-18T03:34:13.207Z,101315.19
2018-08-18T03:36:45.096Z,101312.59
2018-08-18T03:39:22.969Z,101315.29
2018-08-18T03:41:54.202Z,101318.03
2018-08-18T03:44:23.793Z,101318.48
2018-08-18T03:46:53.452Z,101308.75
2018-08-18T03:49:23.165Z,101310.06
2018-08-18T03:51:55.736Z,101323.30
2018-08-18T03:54:25.253Z,101326.83
2018-08-18T03:56:54.810Z,101318.43
2018-08-18T03:59:24.373Z,101319.69
2018-08-18T04:01:56.993Z,101311.29
2018-08-18T04:04:32.054Z,101311.67
2018-08-18T04:07:02.291Z,101310.33
2018-08-18T04:09:33.000Z,101299.33
2018-08-18T04:12:03.928Z,101309.94
2018-08-18T04:14:42.602Z,101300.22
2018-08-18T04:17:30.036Z,101306.38
2018-08-18T04:19:59.885Z,101305.95
2018-08-18T04:22:29.450Z,101300.22
2018-08-18T04:24:59.022Z,101302.02
2018-08-18T04:27:46.428Z,101291.47
2018-08-18T04:30:18.753Z,101286.14
2018-08-18T04:33:07.009Z,101284.36
2018-08-18T04:35:36.546Z,101292.66
2018-08-18T04:38:06.179Z,101294.91
2018-08-18T04:40:37.692Z,101301.11
2018-08-18T04:43:07.287Z,101297.88
2018-08-18T04:45:36.889Z,101308.78
2018-08-18T04:48:06.938Z,101302.87
2018-08-18T04:50:36.531Z,101291.88
2018-08-18T04:53:06.115Z,101295.42
2018-08-18T04:55:35.696Z,101295.22
2018-08-18T04:58:05.237Z,101294.75
2018-08-18T05:00:34.820Z,101288.09
2018-08-18T05:03:04.428Z,101293.41
2018-08-18T05:05:34.088Z,101301.52
2018-08-18T05:08:03.644Z,101295.55
2018-08-18T05:10:33.267Z,101291.64
2018-08-18T05:13:02.785Z,101293.92
2018-08-18T05:15:32.388Z,101289.76
2018-08-18T05:18:01.932Z,101291.19
2018-08-18T05:20:31.569Z,101291.77
2018-08-18T05:23:18.663Z,101301.95
2018-08-18T05:25:48.330Z,101294.73
2018-08-18T05:28:18.021Z,101290.16
2018-08-18T05:30:51.076Z,101294.58
2018-08-18T05:33:20.727Z,101295.44
2018-08-18T05:35:50.308Z,101294.00
2018-08-18T05:38:20.046Z,101292.98
2018-08-18T05:40:49.572Z,101292.28
2018-08-18T05:43:19.392Z,101298.45
2018-08-18T05:45:48.943Z,101300.34
2018-08-18T05:48:18.484Z,101303.02
2018-08-18T05:50:48.020Z,101301.33
2018-08-18T05:53:22.272Z,101302.13
2018-08-18T05:55:51.853Z,101295.60
2018-08-18T05:58:21.424Z,101296.18
2018-08-18T06:00:54.952Z,101294.73
2018-08-18T06:03:24.518Z,101296.13
2018-08-18T06:05:54.148Z,101307.34
2018-08-18T06:08:23.939Z,101309.39
2018-08-18T06:10:53.492Z,101303.02
2018-08-18T06:13:23.924Z,101302.11
2018-08-18T06:16:09.500Z,101297.69
2018-08-18T06:18:40.023Z,101294.48
2018-08-18T06:21:09.608Z,101288.06
2018-08-18T06:23:39.618Z,101299.30
2018-08-18T06:26:09.544Z,101300.77
2018-08-18T06:28:39.076Z,101305.39
2018-08-18T06:31:08.844Z,101308.44
2018-08-18T06:33:38.355Z,101315.08
2018-08-18T06:36:07.928Z,101323.22
2018-08-18T06:38:37.520Z,101327.55
2018-08-18T06:41:07.785Z,101336.02
2018-08-18T06:43:37.367Z,101329.00
2018-08-18T06:46:07.027Z,101333.30
2018-08-18T06:48:37.562Z,101332.11
2018-08-18T06:51:07.886Z,101340.27
2018-08-18T06:53:42.792Z,101341.66
2018-08-18T06:56:12.366Z,101342.75
2018-08-18T06:58:42.092Z,101346.92
2018-08-18T07:01:11.995Z,101348.25
2018-08-18T07:03:44.189Z,101354.52
2018-08-18T07:06:15.440Z,101352.17
2018-08-18T07:08:50.165Z,101344.92
2018-08-18T07:11:19.890Z,101347.97
2018-08-18T07:13:50.002Z,101349.98
2018-08-18T07:16:19.653Z,101353.44
2018-08-18T07:18:49.318Z,101359.27
2018-08-18T07:21:18.844Z,101361.48
2018-08-18T07:23:48.423Z,101371.12
2018-08-18T07:26:17.980Z,101370.58
2018-08-18T07:28:47.567Z,101379.25
2018-08-18T07:31:17.153Z,101387.53
2018-08-18T07:33:46.676Z,101379.83
2018-08-18T07:36:16.176Z,101385.47
2018-08-18T07:38:45.754Z,101382.52
2018-08-18T07:41:15.357Z,101387.22
2018-08-18T07:43:44.904Z,101387.28
2018-08-18T07:46:14.495Z,101392.11
2018-08-18T07:48:44.004Z,101391.69
2018-08-18T07:51:13.516Z,101393.98
2018-08-18T07:53:43.055Z,101393.08
2018-08-18T07:56:12.620Z,101394.56
2018-08-18T07:58:42.231Z,101396.14
2018-08-18T08:01:11.818Z,101398.64
2018-08-18T08:03:41.472Z,101393.70
2018-08-18T08:06:11.031Z,101400.18
2018-08-18T08:08:45.926Z,101401.73
2018-08-18T08:11:15.596Z,101405.69
2018-08-18T08:13:45.207Z,101402.53
2018-08-18T08:16:14.811Z,101407.69
2018-08-18T08:18:44.337Z,101403.66
2018-08-18T08:21:13.957Z,101409.90
2018-08-18T08:23:43.576Z,101407.44
2018-08-18T08:26:13.092Z,101410.15
2018-08-18T08:28:42.692Z,101415.26
2018-08-18T08:31:12.287Z,101416.03
2018-08-18T08:33:41.935Z,101421.09
2018-08-18T08:36:14.702Z,101417.23
2018-08-18T08:38:56.647Z,101420.27
2018-08-18T08:41:28.384Z,101419.01
2018-08-18T08:43:57.993Z,101426.55
2018-08-18T08:46:27.600Z,101421.39
2018-08-18T08:49:00.288Z,101419.58
2018-08-18T08:51:29.890Z,101417.59
2018-08-18T08:54:00.366Z,101421.62
2018-08-18T08:56:35.203Z,101419.89
2018-08-18T08:59:05.251Z,101409.84
2018-08-18T09:01:35.438Z,101406.85
2018-08-18T09:04:05.361Z,101414.05
2018-08-18T09:06:36.444Z,101415.78
2018-08-18T09:09:08.725Z,101410.48
2018-08-18T09:11:38.356Z,101409.94
2018-08-18T09:14:09.160Z,101402.70
2018-08-18T09:16:38.772Z,101395.37
2018-08-18T09:19:08.600Z,101400.08
2018-08-18T09:21:43.477Z,101402.98
2018-08-18T09:24:13.634Z,101411.73
2018-08-18T09:26:48.414Z,101408.81
2018-08-18T09:29:18.085Z,101408.99
2018-08-18T09:31:47.907Z,101406.48
2018-08-18T09:34:17.644Z,101409.02
2018-08-18T09:36:47.737Z,101411.85
2018-08-18T09:39:24.260Z,101405.48
2018-08-18T09:41:54.013Z,101409.92
2018-08-18T09:44:27.788Z,101419.22
2018-08-18T09:46:57.852Z,101416.55
2018-08-18T09:49:28.681Z,101414.84
2018-08-18T09:51:58.805Z,101419.13
2018-08-18T09:54:28.852Z,101416.63
2018-08-18T09:56:59.328Z,101412.74
2018-08-18T09:59:29.588Z,101414.67
2018-08-18T10:01:59.220Z,101409.91
2018-08-18T10:04:28.972Z,101417.25
2018-08-18T10:06:58.565Z,101418.22
2018-08-18T10:09:28.208Z,101416.42
2018-08-18T10:11:57.807Z,101417.09
2018-08-18T10:14:27.349Z,101418.06
2018-08-18T10:16:56.898Z,101418.39
2018-08-18T10:19:26.439Z,101424.41
2018-08-18T10:21:55.984Z,101426.04
2018-08-18T10:24:25.592Z,101424.18
2018-08-18T10:27:00.666Z,101418.59
2018-08-18T10:29:30.208Z,101412.17
2018-08-18T10:32:00.230Z,101406.72
2018-08-18T10:34:31.259Z,101421.33
2018-08-18T10:37:07.464Z,101413.31
2018-08-18T10:39:38.402Z,101406.70
2018-08-18T10:42:29.633Z,101410.39
2018-08-18T10:45:02.331Z,101415.12
2018-08-18T10:47:32.149Z,101409.64
2018-08-18T10:50:33.062Z,101410.18
2018-08-18T10:53:02.582Z,101408.64
2018-08-18T10:55:33.122Z,101404.70
2018-08-18T10:58:07.340Z,101408.76
2018-08-18T11:00:37.001Z,101407.94
2018-08-18T11:03:07.806Z,101405.97
2018-08-18T11:05:37.405Z,101407.03
2018-08-18T11:08:09.784Z,101408.18
2018-08-18T11:10:41.756Z,101407.62
2018-08-18T11:13:11.430Z,101410.50
2018-08-18T11:15:41.067Z,101400.69
2018-08-18T11:18:10.671Z,101399.28
2018-08-18T11:20:40.244Z,101407.60
2018-08-18T11:23:12.620Z,101401.03
2018-08-18T11:25:49.518Z,101394.56
2018-08-18T11:28:19.932Z,101394.91
2018-08-18T11:30:51.522Z,101395.80
2018-08-18T11:33:37.823Z,101396.05
2018-08-18T11:36:08.724Z,101390.45
2018-08-18T11:38:38.365Z,101389.72
2018-08-18T11:41:07.956Z,101393.45
2018-08-18T11:43:47.864Z,101390.76
2018-08-18T11:46:17.372Z,101392.98
2018-08-18T11:48:46.992Z,101392.05
2018-08-18T11:51:16.739Z,101384.78
2018-08-18T11:53:58.183Z,101386.12
2018-08-18T11:56:27.812Z,101387.00
2018-08-18T11:59:11.383Z,101387.59
2018-08-18T12:01:42.037Z,101384.03
2018-08-18T12:04:11.600Z,101378.19
2018-08-18T12:06:46.405Z,101377.78
2018-08-18T12:09:16.156Z,101378.47
2018-08-18T12:11:47.289Z,101377.20
2018-08-18T12:14:16.924Z,101369.80
2018-08-18T12:16:46.598Z,101365.23
2018-08-18T12:19:16.313Z,101372.89
2018-08-18T12:21:46.736Z,101360.41
2018-08-18T12:24:19.427Z,101362.78
2018-08-18T12:27:07.637Z,101361.03
2018-08-18T12:29:37.267Z,101356.64
2018-08-18T12:32:12.745Z,101352.56
2018-08-18T12:34:42.381Z,101351.42
2018-08-18T12:37:13.454Z,101353.23
2018-08-18T12:39:43.393Z,101352.62
2018-08-18T12:42:17.157Z,101348.34
2018-08-18T12:44:46.884Z,101353.92
2018-08-18T12:47:16.481Z,101349.89
2018-08-18T12:49:46.135Z,101345.50
2018-08-18T12:52:15.672Z,101337.27
2018-08-18T12:54:45.516Z,101342.48
2018-08-18T12:57:19.925Z,101328.88
2018-08-18T12:59:49.437Z,101329.76
2018-08-18T13:02:19.040Z,101325.95
2018-08-18T13:04:48.686Z,101322.48
2018-08-18T13:07:18.202Z,101323.23
2018-08-18T13:09:47.937Z,101321.08
2018-08-18T13:12:17.521Z,101321.80
2018-08-18T13:14:47.045Z,101316.66
2018-08-18T13:17:16.578Z,101322.34
2018-08-18T13:19:46.136Z,101316.55
2018-08-18T13:22:15.733Z,101316.94
2018-08-18T13:24:45.278Z,101311.05
2018-08-18T13:27:15.111Z,101310.25
2018-08-18T13:29:44.617Z,101310.09
2018-08-18T13:32:14.159Z,101300.77
2018-08-18T13:34:43.836Z,101305.95
2018-08-18T13:37:13.393Z,101300.18
2018-08-18T13:39:42.949Z,101300.81
2018-08-18T13:42:23.124Z,101297.49
2018-08-18T13:44:54.568Z,101297.96
2018-08-18T13:47:24.257Z,101301.33
2018-08-18T13:49:59.342Z,101298.39
2018-08-18T13:52:35.033Z,101297.05
2018-08-18T13:55:04.657Z,101294.36
2018-08-18T13:57:34.284Z,101289.13
2018-08-18T14:00:03.997Z,101296.17
2018-08-18T14:02:33.590Z,101296.25
2018-08-18T14:05:03.164Z,101299.25
2018-08-18T14:07:43.033Z,101292.81
2018-08-18T14:10:12.545Z,101286.87
2018-08-18T14:12:42.109Z,101292.79
2018-08-18T14:15:11.671Z,101283.09
2018-08-18T14:17:41.209Z,101287.33
2018-08-18T14:20:10.800Z,101280.30
2018-08-18T14:22:40.472Z,101273.96
2018-08-18T14:25:10.088Z,101274.13
2018-08-18T14:27:41.937Z,101275.64
2018-08-18T14:30:11.468Z,101274.21
2018-08-18T14:32:41.020Z,101276.90
2018-08-18T14:35:10.772Z,101277.63
2018-08-18T14:37:42.340Z,101278.97
2018-08-18T14:40:16.929Z,101269.16
2018-08-18T14:42:47.944Z,101265.89
2018-08-18T14:45:18.972Z,101271.95
2018-08-18T14:47:49.517Z,101262.63
2018-08-18T14:50:23.728Z,101260.81
2018-08-18T14:52:53.495Z,101271.76
2018-08-18T14:55:23.152Z,101260.17
2018-08-18T14:57:57.000Z,101272.73
2018-08-18T15:00:26.542Z,101261.44
2018-08-18T15:02:56.151Z,101269.31
2018-08-18T15:05:25.920Z,101268.92
2018-08-18T15:07:56.476Z,101274.23
2018-08-18T15:10:40.010Z,101269.41
2018-08-18T15:13:10.267Z,101262.77
2018-08-18T15:15:39.945Z,101260.23
2018-08-18T15:18:12.196Z,101253.92
2018-08-18T15:20:42.425Z,101253.35
2018-08-18T15:23:13.168Z,101250.56
2018-08-18T15:25:44.220Z,101251.14
2018-08-18T15:28:15.017Z,101244.72
2018-08-18T15:30:47.264Z,101253.82
2018-08-18T15:33:19.410Z,101251.72
2018-08-18T15:35:48.970Z,101251.80
2018-08-18T15:38:18.747Z,101248.24
2018-08-18T15:40:48.313Z,101250.59
2018-08-18T15:43:17.848Z,101243.17
2018-08-18T15:46:01.819Z,101242.22
2018-08-18T15:48:31.437Z,101236.81
2018-08-18T15:51:00.978Z,101232.85
2018-08-18T15:53:44.757Z,101236.79
2018-08-18T15:56:14.365Z,101234.39
2018-08-18T15:58:46.928Z,101232.39
2018-08-18T16:01:16.537Z,101231.69
2018-08-18T16:03:46.322Z,101230.55
2018-08-18T16:06:15.866Z,101229.72
2018-08-18T16:08:45.498Z,101233.74
2018-08-18T16:11:15.245Z,101230.19
2018-08-18T16:13:51.225Z,101224.36
2018-08-18T16:16:20.765Z,101223.89
2018-08-18T16:18:54.825Z,101222.98
2018-08-18T16:21:25.168Z,101223.48
2018-08-18T16:23:54.757Z,101218.20
2018-08-18T16:26:24.297Z,101220.88
2018-08-18T16:28:54.160Z,101212.20
2018-08-18T16:31:23.720Z,101210.74
2018-08-18T16:33:54.025Z,101207.87
2018-08-18T16:36:31.030Z,101212.26
2018-08-18T16:39:01.175Z,101212.13
2018-08-18T16:41:30.799Z,101216.31
2018-08-18T16:44:00.504Z,101211.02
2018-08-18T16:46:31.576Z,101213.83
2018-08-18T16:49:01.163Z,101211.69
2018-08-18T16:51:30.725Z,101220.33
2018-08-18T16:54:19.881Z,101223.14
2018-08-18T16:56:49.703Z,101223.77
2018-08-18T16:59:19.332Z,101218.20
2018-08-18T17:01:48.926Z,101222.85
2018-08-18T17:04:23.576Z,101222.28
2018-08-18T17:06:53.143Z,101216.71
2018-08-18T17:09:33.631Z,101221.88
2018-08-18T17:12:22.020Z,101225.28
2018-08-18T17:14:51.580Z,101226.97
2018-08-18T17:17:24.332Z,101225.08
2018-08-18T17:19:53.988Z,101223.67
2018-08-18T17:22:23.539Z,101229.80
2018-08-18T17:24:59.833Z,101227.46
2018-08-18T17:27:31.043Z,101229.53
2018-08-18T17:30:03.424Z,101227.25
2018-08-18T17:32:32.932Z,101224.41
2018-08-18T17:35:02.472Z,101224.33
2018-08-18T17:37:32.192Z,101233.60
2018-08-18T17:40:01.789Z,101233.54
2018-08-18T17:42:31.400Z,101236.99
2018-08-18T17:45:01.000Z,101241.80
2018-08-18T17:49:59.233Z,101251.79
2018-08-18T17:52:28.841Z,101253.34
2018-08-18T17:55:13.657Z,101255.44
2018-08-18T17:57:43.322Z,101256.22
2018-08-18T18:00:21.013Z,101267.71
2018-08-18T18:02:56.580Z,101262.77
2018-08-18T18:05:29.578Z,101266.56
2018-08-18T18:08:07.083Z,101265.53
2018-08-18T18:10:38.144Z,101271.12
2018-08-18T18:13:15.642Z,101273.66
2018-08-18T18:15:46.436Z,101275.28
2018-08-18T18:18:18.040Z,101275.14
2018-08-18T18:20:51.560Z,101277.71
2018-08-18T18:23:21.620Z,101283.69
2018-08-18T18:25:51.274Z,101284.29
2018-08-18T18:28:20.857Z,101289.84
2018-08-18T18:30:53.780Z,101287.36
2018-08-18T18:33:25.034Z,101299.57
2018-08-18T18:35:54.624Z,101292.62
2018-08-18T18:38:24.158Z,101296.84
2018-08-18T18:40:53.839Z,101301.84
2018-08-18T18:43:23.409Z,101301.47
2018-08-18T18:45:54.249Z,101308.30
2018-08-18T18:48:24.001Z,101309.42
2018-08-18T18:50:53.578Z,101301.97
2018-08-18T18:53:23.152Z,101306.96
2018-08-18T18:55:54.988Z,101308.45
2018-08-18T18:58:24.615Z,101313.95
2018-08-18T19:00:57.134Z,101314.14
2018-08-18T19:03:26.681Z,101309.44
2018-08-18T19:05:56.349Z,101314.08
2018-08-18T19:08:25.956Z,101319.98
2018-08-18T19:10:55.524Z,101321.43
2018-08-18T19:13:27.551Z,101325.19
2018-08-18T19:15:57.141Z,101327.17
2018-08-18T19:18:26.702Z,101319.83
2018-08-18T19:20:56.452Z,101321.80
2018-08-18T19:23:26.051Z,101327.33
2018-08-18T19:25:55.610Z,101318.66
2018-08-18T19:28:25.219Z,101318.37
2018-08-18T19:30:54.768Z,101325.17
2018-08-18T19:33:24.308Z,101325.83
2018-08-18T19:35:54.093Z,101330.86
2018-08-18T19:38:24.137Z,101328.86
2018-08-18T19:40:55.798Z,101333.47
2018-08-18T19:43:26.640Z,101329.16
2018-08-18T19:45:56.998Z,101330.62
2018-08-18T19:48:27.792Z,101328.09
2018-08-18T19:51:03.308Z,101324.23
2018-08-18T19:53:35.242Z,101324.36
2018-08-18T19:56:08.667Z,101327.08
2018-08-18T19:58:38.208Z,101325.45
2018-08-18T20:01:08.022Z,101327.32
2018-08-18T20:03:37.590Z,101331.00
2018-08-18T20:06:16.082Z,101321.37
2018-08-18T20:08:45.941Z,101328.09
2018-08-18T20:11:15.580Z,101333.02
2018-08-18T20:13:45.087Z,101332.69
2018-08-18T20:16:14.646Z,101334.47
2018-08-18T20:18:44.248Z,101332.31
2018-08-18T20:21:13.852Z,101337.69
2018-08-18T20:23:46.401Z,101338.61
2018-08-18T20:26:15.964Z,101336.89
2018-08-18T20:28:45.556Z,101333.42
2018-08-18T20:31:15.098Z,101337.03
2018-08-18T20:33:44.685Z,101341.07
2018-08-18T20:36:14.232Z,101345.11
2018-08-18T20:38:45.573Z,101336.32
2018-08-18T20:41:15.265Z,101343.94
2018-08-18T20:43:47.421Z,101341.34
2018-08-18T20:46:17.076Z,101343.17
2018-08-18T20:48:46.688Z,101337.04
2018-08-18T20:51:20.691Z,101342.86
2018-08-18T20:53:50.388Z,101342.45
2018-08-18T20:56:19.932Z,101344.71
2018-08-18T20:58:49.473Z,101341.66
2018-08-18T21:01:19.031Z,101341.23
2018-08-18T21:03:50.611Z,101338.16
2018-08-18T21:06:20.544Z,101335.95
2018-08-18T21:08:50.198Z,101339.53
2018-08-18T21:11:19.801Z,101343.48
2018-08-18T21:13:50.665Z,101347.94
2018-08-18T21:16:21.208Z,101348.87
2018-08-18T21:18:50.758Z,101347.57
2018-08-18T21:21:30.656Z,101349.80
2018-08-18T21:24:00.236Z,101351.17
2018-08-18T21:26:29.888Z,101348.14
2018-08-18T21:28:59.684Z,101350.36
2018-08-18T21:31:33.230Z,101348.23
2018-08-18T21:34:03.994Z,101349.14
2018-08-18T21:36:33.895Z,101352.69
2018-08-18T21:39:06.928Z,101353.19
2018-08-18T21:41:39.542Z,101355.00
2018-08-18T21:44:11.285Z,101356.35
2018-08-18T21:46:41.270Z,101353.30
2018-08-18T21:49:11.760Z,101353.80
2018-08-18T21:51:41.440Z,101352.95
2018-08-18T21:54:11.053Z,101356.02
2018-08-18T21:56:41.868Z,101355.59
2018-08-18T21:59:13.592Z,101360.47
2018-08-18T22:01:43.252Z,101358.31
2018-08-18T22:04:12.834Z,101358.38
2018-08-18T22:06:42.520Z,101354.95
2018-08-18T22:09:23.551Z,101347.94
2018-08-18T22:11:53.161Z,101347.47
2018-08-18T22:14:22.707Z,101348.86
2018-08-18T22:16:57.463Z,101348.00
2018-08-18T22:19:28.636Z,101348.53
2018-08-18T22:21:58.225Z,101351.69
2018-08-18T22:24:30.700Z,101353.52
2018-08-18T22:27:00.300Z,101356.66
2018-08-18T22:29:29.841Z,101360.27
2018-08-18T22:31:59.502Z,101353.70
2018-08-18T22:34:29.073Z,101348.47
2018-08-18T22:37:09.052Z,101356.50
2018-08-18T22:39:38.630Z,101356.11
2018-08-18T22:42:08.421Z,101360.55
2018-08-18T22:44:38.044Z,101354.83
2018-08-18T22:47:07.835Z,101358.37
2018-08-18T22:49:37.358Z,101362.84
2018-08-18T22:52:06.995Z,101365.05
2018-08-18T22:54:36.560Z,101358.47
2018-08-18T22:57:06.473Z,101368.19
2018-08-18T22:59:36.026Z,101369.08
2018-08-18T23:02:05.683Z,101365.57
2018-08-18T23:04:36.943Z,101369.11
2018-08-18T23:07:07.588Z,101359.88
2018-08-18T23:09:37.172Z,101359.45
2018-08-18T23:12:08.192Z,101365.70
2018-08-18T23:14:38.921Z,101365.31
2018-08-18T23:17:10.975Z,101363.16
2018-08-18T23:19:41.171Z,101363.23
2018-08-18T23:22:27.512Z,101361.94
2018-08-18T23:24:57.028Z,101356.25
2018-08-18T23:27:27.759Z,101356.27
2018-08-18T23:29:57.333Z,101355.84
2018-08-18T23:32:26.849Z,101361.20
2018-08-18T23:34:57.936Z,101356.40
2018-08-18T23:37:27.532Z,101356.86
2018-08-18T23:39:57.652Z,101361.29
2018-08-18T23:42:27.710Z,101369.26
2018-08-18T23:44:57.426Z,101364.04
2018-08-18T23:47:27.060Z,101365.84
2018-08-18T23:49:56.638Z,101360.16
2018-08-18T23:52:26.250Z,101363.75
2018-08-18T23:54:55.825Z,101364.20
2018-08-18T23:57:25.384Z,101365.53
2018-08-18T23:59:54.978Z,101371.28
